sensor_id;sensor_type;location;lat;lon;timestamp;pressure;altitude;pressure_sealevel;temperature;humidity
84049;BME280;74136;51.684;7.862;2023-11-21T00:01:10;100376.50;;;6.89;85.64
84049;BME280;74136;51.684;7.862;2023-11-21T00:03:35;100364.72;;;6.88;86.12
84049;BME280;74136;51.684;7.862;2023-11-21T00:06:01;100372.94;;;6.88;85.71
84049;BME280;74136;51.684;7.862;2023-11-21T00:08:28;100366.41;;;6.89;85.78
84049;BME280;74136;51.684;7.862;2023-11-21T00:10:53;100378.19;;;6.90;85.68
84049;BME280;74136;51.684;7.862;2023-11-21T00:13:20;100375.44;;;6.90;85.62
84049;BME280;74136;51.684;7.862;2023-11-21T00:15:45;100373.78;;;6.89;85.95
84049;BME280;74136;51.684;7.862;2023-11-21T00:18:10;100383.66;;;6.90;85.68
84049;BME280;74136;51.684;7.862;2023-11-21T00:20:36;100386.41;;;6.90;85.60
84049;BME280;74136;51.684;7.862;2023-11-21T00:23:01;100385.13;;;6.92;85.72
84049;BME280;74136;51.684;7.862;2023-11-21T00:25:27;100379.66;;;6.92;85.94
84049;BME280;74136;51.684;7.862;2023-11-21T00:27:53;100387.88;;;6.92;86.22
84049;BME280;74136;51.684;7.862;2023-11-21T00:30:19;100387.25;;;6.90;85.65
84049;BME280;74136;51.684;7.862;2023-11-21T00:32:45;100379.88;;;6.91;85.65
84049;BME280;74136;51.684;7.862;2023-11-21T00:35:10;100382.59;;;6.91;85.90
84049;BME280;74136;51.684;7.862;2023-11-21T00:37:36;100393.34;;;6.92;85.54
84049;BME280;74136;51.684;7.862;2023-11-21T00:40:02;100400.47;;;6.93;85.58
84049;BME280;74136;51.684;7.862;2023-11-21T00:42:30;100393.97;;;6.94;85.54
84049;BME280;74136;51.684;7.862;2023-11-21T00:44:59;100387.66;;;6.94;85.61
84049;BME280;74136;51.684;7.862;2023-11-21T00:47:24;100391.44;;;6.93;85.48
84049;BME280;74136;51.684;7.862;2023-11-21T00:49:49;100389.53;;;6.93;85.47
84049;BME280;74136;51.684;7.862;2023-11-21T00:52:15;100385.56;;;6.89;85.23
84049;BME280;74136;51.684;7.862;2023-11-21T00:54:41;100392.72;;;6.90;85.59
84049;BME280;74136;51.684;7.862;2023-11-21T00:57:07;100393.34;;;6.92;85.39
84049;BME280;74136;51.684;7.862;2023-11-21T00:59:33;100391.66;;;6.91;85.00
84049;BME280;74136;51.684;7.862;2023-11-21T01:02:00;100403.66;;;6.90;86.14
84049;BME280;74136;51.684;7.862;2023-11-21T01:04:26;100396.72;;;6.88;85.67
84049;BME280;74136;51.684;7.862;2023-11-21T01:06:52;100406.59;;;6.89;85.50
84049;BME280;74136;51.684;7.862;2023-11-21T01:09:17;100416.91;;;6.87;85.56
84049;BME280;74136;51.684;7.862;2023-11-21T01:11:43;100414.16;;;6.87;85.50
84049;BME280;74136;51.684;7.862;2023-11-21T01:14:09;100413.97;;;6.88;85.70
84049;BME280;74136;51.684;7.862;2023-11-21T01:16:35;100412.06;;;6.89;85.45
84049;BME280;74136;51.684;7.862;2023-11-21T01:19:01;100418.38;;;6.89;85.50
84049;BME280;74136;51.684;7.862;2023-11-21T01:21:27;100415.84;;;6.88;85.69
84049;BME280;74136;51.684;7.862;2023-11-21T01:23:53;100412.50;;;6.86;85.61
84049;BME280;74136;51.684;7.862;2023-11-21T01:26:20;100415.47;;;6.84;85.88
84049;BME280;74136;51.684;7.862;2023-11-21T01:28:45;100416.53;;;6.83;85.62
84049;BME280;74136;51.684;7.862;2023-11-21T01:31:14;100416.75;;;6.82;85.49
84049;BME280;74136;51.684;7.862;2023-11-21T01:33:40;100416.94;;;6.80;85.60
84049;BME280;74136;51.684;7.862;2023-11-21T01:36:05;100427.25;;;6.78;85.73
84049;BME280;74136;51.684;7.862;2023-11-21T01:38:31;100430.00;;;6.78;85.81
84049;BME280;74136;51.684;7.862;2023-11-21T01:40:57;100417.38;;;6.77;85.56
84049;BME280;74136;51.684;7.862;2023-11-21T01:43:22;100422.84;;;6.77;85.82
84049;BME280;74136;51.684;7.862;2023-11-21T01:45:48;100424.72;;;6.77;85.91
84049;BME280;74136;51.684;7.862;2023-11-21T01:48:14;100425.78;;;6.76;85.80
84049;BME280;74136;51.684;7.862;2023-11-21T01:50:42;100421.38;;;6.75;85.65
84049;BME280;74136;51.684;7.862;2023-11-21T01:53:07;100426.84;;;6.75;85.73
84049;BME280;74136;51.684;7.862;2023-11-21T01:55:34;100426.84;;;6.75;85.53
84049;BME280;74136;51.684;7.862;2023-11-21T01:57:59;100427.09;;;6.73;85.69
84049;BME280;74136;51.684;7.862;2023-11-21T02:00:25;100428.13;;;6.72;85.61
84049;BME280;74136;51.684;7.862;2023-11-21T02:02:53;100426.44;;;6.71;85.86
84049;BME280;74136;51.684;7.862;2023-11-21T02:05:19;100428.34;;;6.71;85.76
84049;BME280;74136;51.684;7.862;2023-11-21T02:07:45;100435.72;;;6.70;85.78
84049;BME280;74136;51.684;7.862;2023-11-21T02:10:14;100432.13;;;6.70;85.72
84049;BME280;74136;51.684;7.862;2023-11-21T02:12:40;100427.50;;;6.70;85.72
84049;BME280;74136;51.684;7.862;2023-11-21T02:15:08;100433.81;;;6.71;85.68
84049;BME280;74136;51.684;7.862;2023-11-21T02:17:41;100438.66;;;6.69;85.75
84049;BME280;74136;51.684;7.862;2023-11-21T02:20:10;100445.81;;;6.63;85.63
84049;BME280;74136;51.684;7.862;2023-11-21T02:22:41;100439.94;;;6.60;85.60
84049;BME280;74136;51.684;7.862;2023-11-21T02:25:07;100448.16;;;6.60;85.68
84049;BME280;74136;51.684;7.862;2023-11-21T02:27:33;100455.50;;;6.59;85.76
84049;BME280;74136;51.684;7.862;2023-11-21T02:29:58;100462.03;;;6.58;85.75
84049;BME280;74136;51.684;7.862;2023-11-21T02:32:25;100463.91;;;6.57;85.71
84049;BME280;74136;51.684;7.862;2023-11-21T02:34:51;100463.06;;;6.57;85.93
84049;BME280;74136;51.684;7.862;2023-11-21T02:37:16;100460.34;;;6.57;85.75
84049;BME280;74136;51.684;7.862;2023-11-21T02:39:42;100461.63;;;6.61;85.98
84049;BME280;74136;51.684;7.862;2023-11-21T02:42:07;100466.22;;;6.61;86.16
84049;BME280;74136;51.684;7.862;2023-11-21T02:44:33;100467.06;;;6.61;85.92
84049;BME280;74136;51.684;7.862;2023-11-21T02:46:58;100466.22;;;6.61;86.14
84049;BME280;74136;51.684;7.862;2023-11-21T02:49:25;100463.50;;;6.61;86.13
84049;BME280;74136;51.684;7.862;2023-11-21T02:51:53;100464.56;;;6.60;85.94
84049;BME280;74136;51.684;7.862;2023-11-21T02:54:20;100463.28;;;6.62;86.27
84049;BME280;74136;51.684;7.862;2023-11-21T02:56:47;100466.03;;;6.62;86.11
84049;BME280;74136;51.684;7.862;2023-11-21T02:59:12;100462.44;;;6.62;86.21
84049;BME280;74136;51.684;7.862;2023-11-21T03:01:38;100462.44;;;6.62;86.18
84049;BME280;74136;51.684;7.862;2023-11-21T03:04:03;100469.81;;;6.61;86.14
84049;BME280;74136;51.684;7.862;2023-11-21T03:06:29;100470.41;;;6.63;86.33
84049;BME280;74136;51.684;7.862;2023-11-21T03:08:54;100474.00;;;6.64;86.20
84049;BME280;74136;51.684;7.862;2023-11-21T03:11:19;100476.50;;;6.65;86.28
84049;BME280;74136;51.684;7.862;2023-11-21T03:13:45;100486.59;;;6.65;86.45
84049;BME280;74136;51.684;7.862;2023-11-21T03:16:11;100484.50;;;6.67;86.39
84049;BME280;74136;51.684;7.862;2023-11-21T03:18:37;100477.16;;;6.67;86.20
84049;BME280;74136;51.684;7.862;2023-11-21T03:21:06;100485.13;;;6.69;86.36
84049;BME280;74136;51.684;7.862;2023-11-21T03:23:34;100488.28;;;6.72;86.46
84049;BME280;74136;51.684;7.862;2023-11-21T03:26:01;100481.16;;;6.71;86.30
84049;BME280;74136;51.684;7.862;2023-11-21T03:28:27;100487.00;;;6.75;86.33
84049;BME280;74136;51.684;7.862;2023-11-21T03:30:53;100491.22;;;6.77;86.25
84049;BME280;74136;51.684;7.862;2023-11-21T03:33:19;100498.78;;;6.82;86.39
84049;BME280;74136;51.684;7.862;2023-11-21T03:35:44;100495.22;;;6.81;86.42
84049;BME280;74136;51.684;7.862;2023-11-21T03:38:09;100500.47;;;6.83;86.40
84049;BME280;74136;51.684;7.862;2023-11-21T03:40:35;100497.72;;;6.83;86.29
84049;BME280;74136;51.684;7.862;2023-11-21T03:43:00;100506.53;;;6.85;86.33
84049;BME280;74136;51.684;7.862;2023-11-21T03:45:26;100504.66;;;6.85;86.37
84049;BME280;74136;51.684;7.862;2023-11-21T03:47:51;100508.84;;;6.88;86.38
84049;BME280;74136;51.684;7.862;2023-11-21T03:50:16;100516.00;;;6.89;86.20
84049;BME280;74136;51.684;7.862;2023-11-21T03:52:42;100509.47;;;6.90;86.55
84049;BME280;74136;51.684;7.862;2023-11-21T03:55:08;100516.22;;;6.87;86.35
84049;BME280;74136;51.684;7.862;2023-11-21T03:57:33;100529.47;;;6.90;86.16
84049;BME280;74136;51.684;7.862;2023-11-21T03:59:59;100523.16;;;6.90;86.29
84049;BME280;74136;51.684;7.862;2023-11-21T04:02:24;100534.75;;;6.92;86.42
84049;BME280;74136;51.684;7.862;2023-11-21T04:04:51;100539.78;;;6.95;86.41
84049;BME280;74136;51.684;7.862;2023-11-21T04:07:16;100541.44;;;6.96;86.43
84049;BME280;74136;51.684;7.862;2023-11-21T04:09:42;100544.19;;;6.96;86.24
84049;BME280;74136;51.684;7.862;2023-11-21T04:12:08;100548.59;;;6.97;86.23
84049;BME280;74136;51.684;7.862;2023-11-21T04:14:36;100551.34;;;6.97;86.36
84049;BME280;74136;51.684;7.862;2023-11-21T04:17:02;100550.50;;;6.97;86.45
84049;BME280;74136;51.684;7.862;2023-11-21T04:19:29;100562.28;;;6.97;86.46
84049;BME280;74136;51.684;7.862;2023-11-21T04:21:55;100570.94;;;6.94;86.39
84049;BME280;74136;51.684;7.862;2023-11-21T04:24:20;100569.25;;;6.93;86.17
84049;BME280;74136;51.684;7.862;2023-11-21T04:26:45;100561.03;;;6.93;86.25
84049;BME280;74136;51.684;7.862;2023-11-21T04:29:11;100564.41;;;6.95;86.33
84049;BME280;74136;51.684;7.862;2023-11-21T04:31:37;100566.06;;;6.96;86.42
84049;BME280;74136;51.684;7.862;2023-11-21T04:34:02;100567.34;;;6.93;86.63
84049;BME280;74136;51.684;7.862;2023-11-21T04:36:29;100565.84;;;6.98;86.54
84049;BME280;74136;51.684;7.862;2023-11-21T04:38:56;100571.75;;;7.01;86.59
84049;BME280;74136;51.684;7.862;2023-11-21T04:41:21;100562.69;;;7.01;86.47
84049;BME280;74136;51.684;7.862;2023-11-21T04:43:46;100565.22;;;7.02;86.43
84049;BME280;74136;51.684;7.862;2023-11-21T04:46:12;100564.81;;;6.85;86.60
84049;BME280;74136;51.684;7.862;2023-11-21T04:48:38;100558.94;;;6.95;86.60
84049;BME280;74136;51.684;7.862;2023-11-21T04:51:03;100570.72;;;6.96;86.49
84049;BME280;74136;51.684;7.862;2023-11-21T04:53:29;100570.50;;;6.90;86.43
84049;BME280;74136;51.684;7.862;2023-11-21T04:55:55;100564.16;;;6.97;86.56
84049;BME280;74136;51.684;7.862;2023-11-21T04:58:20;100572.81;;;7.00;86.09
84049;BME280;74136;51.684;7.862;2023-11-21T05:00:46;100569.44;;;6.98;86.26
84049;BME280;74136;51.684;7.862;2023-11-21T05:03:11;100567.16;;;6.95;86.33
84049;BME280;74136;51.684;7.862;2023-11-21T05:05:37;100575.34;;;6.95;86.49
84049;BME280;74136;51.684;7.862;2023-11-21T05:08:03;100575.78;;;6.92;86.14
84049;BME280;74136;51.684;7.862;2023-11-21T05:10:28;100575.34;;;6.95;86.48
84049;BME280;74136;51.684;7.862;2023-11-21T05:12:55;100567.56;;;6.92;86.60
84049;BME280;74136;51.684;7.862;2023-11-21T05:15:20;100573.44;;;6.89;86.41
84049;BME280;74136;51.684;7.862;2023-11-21T05:17:46;100570.50;;;6.90;86.50
84049;BME280;74136;51.684;7.862;2023-11-21T05:20:15;100567.78;;;6.90;86.49
84049;BME280;74136;51.684;7.862;2023-11-21T05:22:47;100574.50;;;6.88;86.65
84049;BME280;74136;51.684;7.862;2023-11-21T05:25:13;100587.34;;;6.87;86.57
84049;BME280;74136;51.684;7.862;2023-11-21T05:27:39;100592.16;;;6.85;86.69
84049;BME280;74136;51.684;7.862;2023-11-21T05:30:05;100589.22;;;6.87;86.86
84049;BME280;74136;51.684;7.862;2023-11-21T05:32:31;100601.00;;;6.87;86.61
84049;BME280;74136;51.684;7.862;2023-11-21T05:34:56;100597.03;;;6.90;87.12
84049;BME280;74136;51.684;7.862;2023-11-21T05:37:22;100605.84;;;6.92;86.60
84049;BME280;74136;51.684;7.862;2023-11-21T05:39:48;100613.22;;;6.91;86.50
84049;BME280;74136;51.684;7.862;2023-11-21T05:42:14;100612.16;;;6.92;86.51
84049;BME280;74136;51.684;7.862;2023-11-21T05:44:41;100607.53;;;6.93;86.56
84049;BME280;74136;51.684;7.862;2023-11-21T05:47:06;100609.44;;;6.92;86.82
84049;BME280;74136;51.684;7.862;2023-11-21T05:49:32;100609.44;;;6.92;86.49
84049;BME280;74136;51.684;7.862;2023-11-21T05:51:58;100613.19;;;6.98;86.68
84049;BME280;74136;51.684;7.862;2023-11-21T05:54:23;100626.47;;;7.01;86.85
84049;BME280;74136;51.684;7.862;2023-11-21T05:56:49;100623.53;;;7.03;86.98
84049;BME280;74136;51.684;7.862;2023-11-21T05:59:14;100626.06;;;7.04;86.79
84049;BME280;74136;51.684;7.862;2023-11-21T06:01:40;100622.03;;;7.00;86.50
84049;BME280;74136;51.684;7.862;2023-11-21T06:04:05;100632.16;;;7.06;86.65
84049;BME280;74136;51.684;7.862;2023-11-21T06:06:33;100633.22;;;7.05;86.60
84049;BME280;74136;51.684;7.862;2023-11-21T06:08:58;100642.84;;;7.08;86.42
84049;BME280;74136;51.684;7.862;2023-11-21T06:11:23;100639.28;;;7.07;86.59
84049;BME280;74136;51.684;7.862;2023-11-21T06:13:50;100649.19;;;7.08;86.55
84049;BME280;74136;51.684;7.862;2023-11-21T06:16:15;100654.44;;;7.10;86.67
84049;BME280;74136;51.684;7.862;2023-11-21T06:18:42;100654.44;;;7.10;86.61
84049;BME280;74136;51.684;7.862;2023-11-21T06:21:11;100654.88;;;7.13;86.42
84049;BME280;74136;51.684;7.862;2023-11-21T06:23:37;100660.13;;;7.15;86.39
84049;BME280;74136;51.684;7.862;2023-11-21T06:26:02;100660.78;;;7.17;86.62
84049;BME280;74136;51.684;7.862;2023-11-21T06:28:29;100672.31;;;7.19;86.46
84049;BME280;74136;51.684;7.862;2023-11-21T06:30:56;100674.63;;;7.22;86.68
84049;BME280;74136;51.684;7.862;2023-11-21T06:33:23;100682.44;;;7.25;86.53
84049;BME280;74136;51.684;7.862;2023-11-21T06:35:49;100679.28;;;7.28;86.72
84049;BME280;74136;51.684;7.862;2023-11-21T06:38:15;100674.19;;;7.31;86.74
84049;BME280;74136;51.684;7.862;2023-11-21T06:40:40;100684.72;;;7.35;86.57
84049;BME280;74136;51.684;7.862;2023-11-21T06:43:06;100685.16;;;7.38;86.53
84049;BME280;74136;51.684;7.862;2023-11-21T06:45:32;100688.94;;;7.37;86.60
84049;BME280;74136;51.684;7.862;2023-11-21T06:47:59;100685.75;;;7.40;86.54
84049;BME280;74136;51.684;7.862;2023-11-21T06:50:24;100691.66;;;7.44;86.37
84049;BME280;74136;51.684;7.862;2023-11-21T06:52:50;100697.75;;;7.46;86.58
84049;BME280;74136;51.684;7.862;2023-11-21T06:55:15;100699.88;;;7.44;86.29
84049;BME280;74136;51.684;7.862;2023-11-21T06:57:41;100708.09;;;7.44;86.49
84049;BME280;74136;51.684;7.862;2023-11-21T07:00:07;100708.50;;;7.47;86.35
84049;BME280;74136;51.684;7.862;2023-11-21T07:02:34;100706.19;;;7.44;86.39
84049;BME280;74136;51.684;7.862;2023-11-21T07:04:59;100713.97;;;7.47;86.85
84049;BME280;74136;51.684;7.862;2023-11-21T07:07:25;100714.63;;;7.49;86.18
84049;BME280;74136;51.684;7.862;2023-11-21T07:09:50;100725.56;;;7.49;86.12
84049;BME280;74136;51.684;7.862;2023-11-21T07:12:17;100727.84;;;7.52;86.22
84049;BME280;74136;51.684;7.862;2023-11-21T07:14:43;100733.75;;;7.56;86.42
84049;BME280;74136;51.684;7.862;2023-11-21T07:17:13;100738.19;;;7.57;86.03
84049;BME280;74136;51.684;7.862;2023-11-21T07:19:38;100741.13;;;7.62;85.90
84049;BME280;74136;51.684;7.862;2023-11-21T07:22:03;100743.63;;;7.63;85.77
84049;BME280;74136;51.684;7.862;2023-11-21T07:24:31;100749.75;;;7.65;85.54
84049;BME280;74136;51.684;7.862;2023-11-21T07:26:57;100754.19;;;7.66;86.21
84049;BME280;74136;51.684;7.862;2023-11-21T07:29:25;100755.84;;;7.67;85.48
84049;BME280;74136;51.684;7.862;2023-11-21T07:31:54;100753.75;;;7.63;85.95
84049;BME280;74136;51.684;7.862;2023-11-21T07:34:20;100763.66;;;7.64;85.71
84049;BME280;74136;51.684;7.862;2023-11-21T07:36:46;100763.22;;;7.67;85.94
84049;BME280;74136;51.684;7.862;2023-11-21T07:39:12;100771.88;;;7.71;85.57
84049;BME280;74136;51.684;7.862;2023-11-21T07:41:37;100770.63;;;7.73;85.59
84049;BME280;74136;51.684;7.862;2023-11-21T07:44:10;100775.66;;;7.76;85.59
84049;BME280;74136;51.684;7.862;2023-11-21T07:46:35;100783.66;;;7.78;85.70
84049;BME280;74136;51.684;7.862;2023-11-21T07:49:00;100774.16;;;7.80;85.43
84049;BME280;74136;51.684;7.862;2023-11-21T07:51:26;100777.72;;;7.87;85.20
84049;BME280;74136;51.684;7.862;2023-11-21T07:53:51;100771.81;;;7.90;85.11
84049;BME280;74136;51.684;7.862;2023-11-21T07:56:17;100773.09;;;7.88;85.50
84049;BME280;74136;51.684;7.862;2023-11-21T07:58:43;100774.34;;;7.85;85.15
84049;BME280;74136;51.684;7.862;2023-11-21T08:01:09;100777.53;;;7.82;85.42
84049;BME280;74136;51.684;7.862;2023-11-21T08:03:34;100777.53;;;7.82;85.20
84049;BME280;74136;51.684;7.862;2023-11-21T08:06:00;100788.69;;;7.87;85.54
84049;BME280;74136;51.684;7.862;2023-11-21T08:08:28;100786.38;;;7.91;85.40
84049;BME280;74136;51.684;7.862;2023-11-21T08:10:53;100787.19;;;7.98;85.36
84049;BME280;74136;51.684;7.862;2023-11-21T08:13:25;100789.09;;;7.97;84.83
84049;BME280;74136;51.684;7.862;2023-11-21T08:15:55;100798.81;;;7.93;85.11
84049;BME280;74136;51.684;7.862;2023-11-21T08:18:21;100799.41;;;7.95;85.44
84049;BME280;74136;51.684;7.862;2023-11-21T08:20:47;100801.31;;;8.01;85.27
84049;BME280;74136;51.684;7.862;2023-11-21T08:23:14;100808.47;;;8.02;85.29
84049;BME280;74136;51.684;7.862;2023-11-21T08:25:41;100809.72;;;8.07;84.68
84049;BME280;74136;51.684;7.862;2023-11-21T08:28:07;100813.50;;;8.12;84.44
84049;BME280;74136;51.684;7.862;2023-11-21T08:30:33;100818.34;;;8.17;84.62
84049;BME280;74136;51.684;7.862;2023-11-21T08:32:58;100824.00;;;8.22;84.51
84049;BME280;74136;51.684;7.862;2023-11-21T08:35:24;100818.78;;;8.07;84.96
84049;BME280;74136;51.684;7.862;2023-11-21T08:37:52;100808.47;;;7.96;85.51
84049;BME280;74136;51.684;7.862;2023-11-21T08:40:18;100812.72;;;7.85;85.33
84049;BME280;74136;51.684;7.862;2023-11-21T08:42:44;100824.50;;;7.86;86.54
84049;BME280;74136;51.684;7.862;2023-11-21T08:45:11;100827.28;;;7.73;86.26
84049;BME280;74136;51.684;7.862;2023-11-21T08:47:38;100836.97;;;7.82;85.97
84049;BME280;74136;51.684;7.862;2023-11-21T08:50:04;100847.06;;;7.88;86.32
84049;BME280;74136;51.684;7.862;2023-11-21T08:52:31;100846.00;;;7.95;86.15
84049;BME280;74136;51.684;7.862;2023-11-21T08:54:56;100853.59;;;7.87;85.93
84049;BME280;74136;51.684;7.862;2023-11-21T08:57:22;100854.44;;;7.87;85.77
84049;BME280;74136;51.684;7.862;2023-11-21T08:59:48;100861.63;;;7.95;86.12
84049;BME280;74136;51.684;7.862;2023-11-21T09:02:13;100858.25;;;7.93;85.94
84049;BME280;74136;51.684;7.862;2023-11-21T09:04:39;100861.38;;;8.03;85.74
84049;BME280;74136;51.684;7.862;2023-11-21T09:07:04;100864.13;;;8.03;85.63
84049;BME280;74136;51.684;7.862;2023-11-21T09:09:30;100855.28;;;7.94;85.85
84049;BME280;74136;51.684;7.862;2023-11-21T09:11:56;100862.00;;;8.12;85.83
84049;BME280;74136;51.684;7.862;2023-11-21T09:14:21;100867.69;;;8.17;85.38
84049;BME280;74136;51.684;7.862;2023-11-21T09:16:46;100872.72;;;8.20;85.37
84049;BME280;74136;51.684;7.862;2023-11-21T09:19:12;100859.88;;;8.27;84.93
84049;BME280;74136;51.684;7.862;2023-11-21T09:21:39;100863.44;;;8.34;85.25
84049;BME280;74136;51.684;7.862;2023-11-21T09:24:05;100875.91;;;8.36;85.07
84049;BME280;74136;51.684;7.862;2023-11-21T09:26:30;100883.06;;;8.37;84.66
84049;BME280;74136;51.684;7.862;2023-11-21T09:28:55;100882.66;;;8.34;84.53
84049;BME280;74136;51.684;7.862;2023-11-21T09:31:22;100885.59;;;8.32;84.83
84049;BME280;74136;51.684;7.862;2023-11-21T09:33:49;100889.56;;;8.30;85.00
84049;BME280;74136;51.684;7.862;2023-11-21T09:36:14;100888.75;;;8.36;85.32
84049;BME280;74136;51.684;7.862;2023-11-21T09:38:40;100907.31;;;8.34;85.04
84049;BME280;74136;51.684;7.862;2023-11-21T09:41:25;100902.44;;;8.29;84.87
84049;BME280;74136;51.684;7.862;2023-11-21T09:43:57;100904.13;;;8.30;84.80
84049;BME280;74136;51.684;7.862;2023-11-21T09:46:27;100906.44;;;8.40;85.09
84049;BME280;74136;51.684;7.862;2023-11-21T09:48:53;100914.28;;;8.36;84.63
84049;BME280;74136;51.684;7.862;2023-11-21T09:51:19;100916.81;;;8.38;84.95
84049;BME280;74136;51.684;7.862;2023-11-21T09:53:49;100920.19;;;8.27;84.66
84049;BME280;74136;51.684;7.862;2023-11-21T09:56:15;100921.25;;;8.26;85.33
84049;BME280;74136;51.684;7.862;2023-11-21T09:58:44;100928.81;;;8.24;85.22
84049;BME280;74136;51.684;7.862;2023-11-21T10:01:11;100929.03;;;8.22;85.45
84049;BME280;74136;51.684;7.862;2023-11-21T10:03:37;100930.94;;;8.22;85.46
84049;BME280;74136;51.684;7.862;2023-11-21T10:06:04;100923.97;;;8.26;85.11
84049;BME280;74136;51.684;7.862;2023-11-21T10:08:32;100932.84;;;8.28;85.36
84049;BME280;74136;51.684;7.862;2023-11-21T10:10:57;100928.22;;;8.35;85.50
84049;BME280;74136;51.684;7.862;2023-11-21T10:13:25;100931.56;;;8.24;84.89
84049;BME280;74136;51.684;7.862;2023-11-21T10:15:52;100937.03;;;8.30;85.07
84049;BME280;74136;51.684;7.862;2023-11-21T10:18:18;100942.13;;;8.27;85.09
84049;BME280;74136;51.684;7.862;2023-11-21T10:20:44;100947.81;;;8.32;85.24
84049;BME280;74136;51.684;7.862;2023-11-21T10:23:20;100945.47;;;8.29;85.27
84049;BME280;74136;51.684;7.862;2023-11-21T10:25:47;100940.44;;;8.26;85.64
84049;BME280;74136;51.684;7.862;2023-11-21T10:28:12;100948.03;;;8.17;85.33
84049;BME280;74136;51.684;7.862;2023-11-21T10:30:38;100950.75;;;8.24;85.56
84049;BME280;74136;51.684;7.862;2023-11-21T10:33:07;100946.31;;;8.23;85.35
84049;BME280;74136;51.684;7.862;2023-11-21T10:35:45;100941.47;;;8.25;85.48
84049;BME280;74136;51.684;7.862;2023-11-21T10:38:12;100939.78;;;8.24;85.42
84049;BME280;74136;51.684;7.862;2023-11-21T10:40:40;100943.81;;;8.28;84.99
84049;BME280;74136;51.684;7.862;2023-11-21T10:43:06;100940.63;;;8.24;85.57
84049;BME280;74136;51.684;7.862;2023-11-21T10:45:34;100944.00;;;8.26;85.69
84049;BME280;74136;51.684;7.862;2023-11-21T10:48:00;100951.84;;;8.36;85.55
84049;BME280;74136;51.684;7.862;2023-11-21T10:50:26;100948.00;;;8.44;85.72
84049;BME280;74136;51.684;7.862;2023-11-21T10:52:51;100944.00;;;8.39;85.27
84049;BME280;74136;51.684;7.862;2023-11-21T10:55:20;100956.25;;;8.24;85.96
84049;BME280;74136;51.684;7.862;2023-11-21T10:57:53;100963.63;;;8.23;85.79
84049;BME280;74136;51.684;7.862;2023-11-21T11:00:19;100961.09;;;8.22;86.10
84049;BME280;74136;51.684;7.862;2023-11-21T11:02:54;100963.63;;;8.17;86.15
84049;BME280;74136;51.684;7.862;2023-11-21T11:05:24;100971.63;;;8.18;86.17
84049;BME280;74136;51.684;7.862;2023-11-21T11:07:56;100974.59;;;8.23;85.81
84049;BME280;74136;51.684;7.862;2023-11-21T11:10:25;100985.97;;;8.27;85.67
84049;BME280;74136;51.684;7.862;2023-11-21T11:12:53;100979.03;;;8.11;86.07
84049;BME280;74136;51.684;7.862;2023-11-21T11:15:19;100982.81;;;8.17;85.85
84049;BME280;74136;51.684;7.862;2023-11-21T11:17:45;100991.44;;;8.20;86.08
84049;BME280;74136;51.684;7.862;2023-11-21T11:20:13;100980.09;;;8.17;86.20
84049;BME280;74136;51.684;7.862;2023-11-21T11:25:39;100981.75;;;8.18;85.75
84049;BME280;74136;51.684;7.862;2023-11-21T11:28:26;100979.22;;;8.23;85.22
84049;BME280;74136;51.684;7.862;2023-11-21T11:31:05;100973.97;;;8.34;85.54
84049;BME280;74136;51.684;7.862;2023-11-21T11:33:43;100979.47;;;8.34;85.07
84049;BME280;74136;51.684;7.862;2023-11-21T11:36:24;100991.69;;;8.45;85.32
84049;BME280;74136;51.684;7.862;2023-11-21T11:38:50;100991.88;;;8.57;84.82
84049;BME280;74136;51.684;7.862;2023-11-21T11:41:26;100986.59;;;8.55;84.54
84049;BME280;74136;51.684;7.862;2023-11-21T11:43:53;100991.91;;;8.50;84.50
84049;BME280;74136;51.684;7.862;2023-11-21T11:46:18;100988.97;;;8.38;84.20
84049;BME280;74136;51.684;7.862;2023-11-21T11:48:48;100996.75;;;8.42;84.68
84049;BME280;74136;51.684;7.862;2023-11-21T11:51:15;100996.09;;;8.39;84.48
84049;BME280;74136;51.684;7.862;2023-11-21T11:53:43;100994.66;;;8.37;84.59
84049;BME280;74136;51.684;7.862;2023-11-21T11:56:31;100993.56;;;8.25;84.43
84049;BME280;74136;51.684;7.862;2023-11-21T11:59:01;100989.34;;;8.29;84.63
84049;BME280;74136;51.684;7.862;2023-11-21T12:01:28;100988.09;;;8.31;84.51
84049;BME280;74136;51.684;7.862;2023-11-21T12:07:00;101005.63;;;8.37;84.51
84049;BME280;74136;51.684;7.862;2023-11-21T12:09:28;101014.47;;;8.32;84.83
84049;BME280;74136;51.684;7.862;2023-11-21T12:11:54;101008.75;;;8.40;84.95
84049;BME280;74136;51.684;7.862;2023-11-21T12:14:22;101016.59;;;8.50;84.66
84049;BME280;74136;51.684;7.862;2023-11-21T12:16:48;101020.16;;;8.57;84.11
84049;BME280;74136;51.684;7.862;2023-11-21T12:19:13;101024.16;;;8.61;84.46
84049;BME280;74136;51.684;7.862;2023-11-21T12:21:40;101026.91;;;8.61;84.06
84049;BME280;74136;51.684;7.862;2023-11-21T12:24:09;101017.81;;;8.54;84.22
84049;BME280;74136;51.684;7.862;2023-11-21T12:26:35;101034.06;;;8.56;83.83
84049;BME280;74136;51.684;7.862;2023-11-21T12:29:01;101029.22;;;8.58;83.73
84049;BME280;74136;51.684;7.862;2023-11-21T12:31:30;101027.75;;;8.55;83.69
84049;BME280;74136;51.684;7.862;2023-11-21T12:33:55;101036.19;;;8.60;84.07
84049;BME280;74136;51.684;7.862;2023-11-21T12:36:21;101045.47;;;8.59;83.84
84049;BME280;74136;51.684;7.862;2023-11-21T12:38:47;101048.41;;;8.64;83.39
84049;BME280;74136;51.684;7.862;2023-11-21T12:41:12;101044.41;;;8.67;83.04
84049;BME280;74136;51.684;7.862;2023-11-21T12:43:37;101048.63;;;8.63;82.60
84049;BME280;74136;51.684;7.862;2023-11-21T12:46:08;101041.66;;;8.54;83.44
84049;BME280;74136;51.684;7.862;2023-11-21T12:48:37;101042.50;;;8.54;83.27
84049;BME280;74136;51.684;7.862;2023-11-21T12:51:05;101043.34;;;8.55;83.29
84049;BME280;74136;51.684;7.862;2023-11-21T12:53:32;101047.78;;;8.43;83.36
84049;BME280;74136;51.684;7.862;2023-11-21T12:56:07;101058.78;;;8.36;83.94
84049;BME280;74136;51.684;7.862;2023-11-21T12:58:37;101056.22;;;8.41;83.54
84049;BME280;74136;51.684;7.862;2023-11-21T13:01:07;101062.75;;;8.14;84.56
84049;BME280;74136;51.684;7.862;2023-11-21T13:03:37;101066.97;;;8.16;84.40